This is the latest recevied weather packets stored in our database for station/object CT1ETE-13. If no packets are shown the sender has not sent any weather packets the latest 1 day(s).
| Time | Temp. | Humidity | Pressure | Rain* | Wind** | Luminosity | Snow |
|---|---|---|---|---|---|---|---|
| 1778053957 | 12.78° C | 83% | 1014.5 hPa | 0 mm | - | - | - |
| 1778053118 | 12.22° C | 84% | 1014.4 hPa | 0 mm | - | - | - |
| 1778052157 | 11.67° C | 85% | 1014.4 hPa | 0 mm | - | - | - |
| 1778050414 | 10.56° C | 86% | 1014.5 hPa | 0 mm | - | - | - |
| 1778049453 | 10.56° C | 81% | 1014.5 hPa | 0 mm | - | - | - |
| 1778047653 | 8.89° C | 79% | 1014.2 hPa | 0 mm | - | - | - |
| 1778046753 | 8.89° C | 79% | 1014.2 hPa | 0 mm | - | - | - |
| 1778045854 | 8.89° C | 79% | 1014.2 hPa | 0 mm | - | - | - |
| 1778044951 | 8.89° C | 81% | 1014.1 hPa | 0 mm | - | - | - |
| 1778044049 | 8.89° C | 81% | 1014.1 hPa | 0 mm | - | - | - |
| 1778043147 | 8.89° C | 81% | 1014.1 hPa | 0 mm | - | - | - |
| 1778042247 | 8.89° C | 82% | 1014.1 hPa | 0 mm | - | - | - |
| 1778041347 | 8.89° C | 83% | 1014.1 hPa | 0 mm | - | - | - |
| 1778040445 | 9.44° C | 84% | 1014.2 hPa | 0 mm | - | - | - |
| 1778039539 | 9.44° C | 84% | 1014.3 hPa | 0 mm | - | - | - |
| 1778037737 | 9.44° C | 84% | 1014.4 hPa | 0 mm | - | - | - |
| 1778036836 | 9.44° C | 85% | 1014.4 hPa | 0 mm | - | - | - |
| 1778035933 | 10° C | 86% | 1014.5 hPa | 0 mm | - | - | - |
| 1778035030 | 10° C | 86% | 1014.6 hPa | 0 mm | - | - | - |
| 1778034189 | 10° C | 86% | 1014.7 hPa | 0 mm | - | - | - |
| 1778032327 | 10° C | 86% | 1015 hPa | 0 mm | - | - | - |
| 1778031427 | 10° C | 86% | 1015.2 hPa | 0 mm | - | - | - |
| 1778030527 | 10.56° C | 86% | 1015.4 hPa | 0 mm | - | - | - |
| 1778028728 | 10.56° C | 86% | 1015.6 hPa | 0 mm | - | - | - |
| 1778027827 | 10.56° C | 86% | 1015.8 hPa | 0 mm | - | - | - |
* Rain latest hour (hover to see other rain measurements)
** Current wind speed in m/s (hover to see current wind gust speed)